Time;durP1;ratioP1;P1;durP2;ratioP2;P2;SDS_P1;SDS_P2;PMS_P1;PMS_P2;Temp;Humidity;BMP_temperature;BMP_pressure;BME280_temperature;BME280_humidity;BME280_pressure;Samples;Min_cycle;Max_cycle;Signal;HPM_P1;HPM_P2
2022/11/02 00:00:13;;;;;;;10.32;2.50;;;;;;;13.19;72.40;101301.41;5084725;28;20031;-58
2022/11/02 00:02:39;;;;;;;10.52;2.58;;;;;;;13.19;72.78;101298.75;5080989;28;20032;-60
2022/11/02 00:05:04;;;;;;;10.40;2.67;;;;;;;13.19;72.88;101301.41;5083885;28;20395;-58
2022/11/02 00:07:30;;;;;;;17.67;3.10;;;;;;;13.19;72.61;101293.41;5078717;28;20552;-57
2022/11/02 00:09:55;;;;;;;11.10;2.50;;;;;;;13.22;72.38;101305.56;5083587;28;20519;-58
2022/11/02 00:12:20;;;;;;;10.05;2.80;;;;;;;13.27;71.98;101298.72;5084834;28;20142;-59
2022/11/02 00:14:45;;;;;;;11.00;2.50;;;;;;;13.23;72.36;101308.03;5083860;28;20018;-57
2022/11/02 00:17:11;;;;;;;12.90;2.90;;;;;;;13.27;71.98;101303.25;5076895;28;20040;-60
2022/11/02 00:19:36;;;;;;;9.43;2.70;;;;;;;13.29;71.79;101307.41;5083080;28;20036;-59
2022/11/02 00:22:02;;;;;;;13.07;2.45;;;;;;;13.27;71.86;101306.72;5084972;28;20110;-58
2022/11/02 00:24:31;;;;;;;10.70;2.80;;;;;;;13.26;71.65;101299.72;5083199;28;20607;-58
2022/11/02 00:26:56;;;;;;;11.73;2.55;;;;;;;13.27;71.49;101297.91;5084437;28;20081;-58
2022/11/02 00:29:23;;;;;;;12.27;2.60;;;;;;;13.30;71.61;101309.06;5078440;28;20565;-57
2022/11/02 00:31:48;;;;;;;13.00;2.58;;;;;;;13.34;71.40;101295.38;5083589;28;20032;-58
2022/11/02 00:34:13;;;;;;;13.02;2.55;;;;;;;13.44;70.66;101304.03;5083009;28;20506;-58
2022/11/02 00:36:39;;;;;;;14.57;2.58;;;;;;;13.41;70.51;101309.69;5081118;28;20032;-58
2022/11/02 00:39:04;;;;;;;15.13;2.38;;;;;;;13.49;69.88;101304.41;5083372;28;20157;-59
2022/11/02 00:41:29;;;;;;;13.20;2.40;;;;;;;13.47;69.85;101302.91;5084507;28;20067;-60
2022/11/02 00:43:55;;;;;;;12.75;2.33;;;;;;;13.44;69.99;101312.03;5082834;28;20051;-59
2022/11/02 00:46:20;;;;;;;10.05;2.30;;;;;;;13.43;70.14;101313.03;5078274;28;20044;-58
2022/11/02 00:48:45;;;;;;;12.57;2.60;;;;;;;13.51;69.53;101309.56;5074058;28;20923;-57
2022/11/02 00:51:10;;;;;;;8.68;2.25;;;;;;;13.46;68.75;101304.72;5084009;28;20036;-58
2022/11/02 00:53:36;;;;;;;13.40;2.60;;;;;;;13.51;68.38;101321.03;5083588;28;20032;-58
2022/11/02 00:56:01;;;;;;;11.02;2.10;;;;;;;13.52;68.25;101322.69;5083314;28;20487;-57
2022/11/02 00:58:26;;;;;;;12.60;2.75;;;;;;;13.38;69.02;101305.53;5084459;28;20024;-60
2022/11/02 01:00:52;;;;;;;10.50;2.22;;;;;;;13.30;69.00;101319.72;5072008;28;20046;-58
2022/11/02 01:03:17;;;;;;;8.75;2.20;;;;;;;13.29;68.35;101326.03;5081489;28;20058;-59
2022/11/02 01:05:42;;;;;;;9.68;2.40;;;;;;;13.34;67.62;101328.19;5079138;28;20492;-57
2022/11/02 01:08:08;;;;;;;12.05;2.20;;;;;;;13.27;67.55;101325.34;5081254;28;20031;-57
2022/11/02 01:10:33;;;;;;;8.15;2.35;;;;;;;13.31;67.38;101342.69;5083175;28;20074;-57
2022/11/02 01:13:00;;;;;;;10.23;2.20;;;;;;;13.10;68.79;101350.31;5076376;28;20024;-58
2022/11/02 01:15:25;;;;;;;12.35;2.15;;;;;;;13.11;68.11;101344.84;5083592;28;20032;-57
2022/11/02 01:17:50;;;;;;;8.82;2.10;;;;;;;13.16;67.75;101355.81;5084326;28;20030;-58
2022/11/02 01:20:15;;;;;;;8.32;2.28;;;;;;;13.14;67.35;101347.19;5081218;28;20940;-60
2022/11/02 01:22:41;;;;;;;9.65;2.50;;;;;;;12.97;68.09;101350.81;5082556;28;20035;-58
2022/11/02 01:25:06;;;;;;;11.35;2.50;;;;;;;12.90;68.20;101345.31;5084033;28;20838;-57
2022/11/02 01:27:32;;;;;;;11.70;2.28;;;;;;;12.88;67.77;101352.66;5083664;28;20028;-57
2022/11/02 01:29:57;;;;;;;9.88;2.30;;;;;;;12.93;67.62;101360.13;5084007;28;20426;-58
2022/11/02 01:32:22;;;;;;;8.55;2.50;;;;;;;12.86;67.98;101349.28;5072821;28;20043;-57
2022/11/02 01:34:48;;;;;;;8.13;2.20;;;;;;;12.86;67.63;101358.13;5081873;28;20743;-57
2022/11/02 01:37:13;;;;;;;9.73;2.08;;;;;;;12.81;67.97;101356.94;5083373;28;20370;-60
2022/11/02 01:39:38;;;;;;;7.93;2.20;;;;;;;12.77;68.26;101356.44;5083302;28;20875;-59
2022/11/02 01:42:16;;;;;;;13.60;2.38;;;;;;;12.80;68.09;101352.63;5083609;28;20472;-58
2022/11/02 01:44:42;;;;;;;6.40;1.92;;;;;;;12.65;68.97;101363.91;5082655;28;20072;-58
2022/11/02 01:47:16;;;;;;;8.75;2.38;;;;;;;12.74;68.55;101362.09;5084212;28;20034;-59
2022/11/02 01:49:46;;;;;;;6.90;2.20;;;;;;;12.68;68.17;101358.25;5076891;28;20491;-58
2022/11/02 01:52:18;;;;;;;8.95;2.00;;;;;;;12.64;67.90;101356.91;5083492;28;20020;-61
2022/11/02 01:55:03;;;;;;;5.68;2.13;;;;;;;12.56;68.71;101364.84;5081970;28;20027;-57
2022/11/02 01:57:30;;;;;;;10.40;2.22;;;;;;;12.66;68.16;101373.53;5083589;28;20084;-58
2022/11/02 02:00:02;;;;;;;13.57;2.35;;;;;;;12.54;68.60;101365.03;5077690;28;20053;-59
2022/11/02 02:02:28;;;;;;;11.60;2.38;;;;;;;12.51;69.07;101368.84;5078131;28;20500;-57
2022/11/02 02:05:01;;;;;;;10.27;2.22;;;;;;;12.52;68.99;101372.34;5082070;28;20036;-58
2022/11/02 02:07:28;;;;;;;10.07;2.10;;;;;;;12.59;68.71;101369.88;5083007;28;20513;-59
2022/11/02 02:09:54;;;;;;;10.02;2.33;;;;;;;12.60;68.53;101361.75;5077493;28;20024;-58
2022/11/02 02:12:20;;;;;;;7.82;2.20;;;;;;;12.55;68.68;101371.19;5075831;28;20092;-58
2022/11/02 02:14:46;;;;;;;8.85;2.35;;;;;;;12.53;68.70;101365.19;5080982;28;20028;-58
2022/11/02 02:17:33;;;;;;;8.80;2.15;;;;;;;12.44;69.47;101356.34;5081805;28;20044;-57
2022/11/02 02:20:10;;;;;;;10.68;2.45;;;;;;;12.40;69.83;101361.16;5075427;28;20036;-58
2022/11/02 02:23:06;;;;;;;10.65;2.45;;;;;;;12.41;69.79;101364.66;5083201;28;20036;-58
2022/11/02 02:26:02;;;;;;;9.65;2.50;;;;;;;12.39;70.07;101380.78;5083569;28;20506;-57
2022/11/02 02:28:33;;;;;;;11.90;2.63;;;;;;;12.27;70.58;101371.41;5082328;28;20032;-59
2022/11/02 02:31:13;;;;;;;10.73;2.40;;;;;;;12.24;70.78;101373.41;5079050;28;20635;-59
2022/11/02 02:33:57;;;;;;;10.15;2.47;;;;;;;12.23;71.12;101371.72;5082588;28;20036;-57
2022/11/02 02:36:24;;;;;;;12.05;2.40;;;;;;;12.14;71.42;101362.03;5082075;28;20039;-57
2022/11/02 02:39:17;;;;;;;9.80;2.30;;;;;;;12.21;71.23;101371.06;5082724;28;20032;-58
2022/11/02 02:41:50;;;;;;;;;;;;;;;12.28;70.60;101368.59;5081617;28;20040;-58
2022/11/02 02:44:21;;;;;;;10.48;2.35;;;;;;;12.08;71.68;101381.28;5082166;28;19920;-60
2022/11/02 02:46:56;;;;;;;13.20;2.80;;;;;;;12.06;71.87;101377.97;5081541;28;20084;-58
2022/11/02 02:49:32;;;;;;;13.40;2.60;;;;;;;12.09;71.88;101386.44;5072704;28;20590;-57
2022/11/02 02:51:58;;;;;;;12.35;2.45;;;;;;;12.11;71.49;101373.81;5082475;28;20032;-57
2022/11/02 02:54:31;;;;;;;12.10;2.63;;;;;;;12.05;71.38;101378.97;5074055;28;20090;-59
2022/11/02 02:57:02;;;;;;;11.18;2.63;;;;;;;12.00;71.72;101381.22;5083198;28;20024;-59
2022/11/02 02:59:40;;;;;;;12.65;2.78;;;;;;;12.09;71.54;101385.63;5080356;28;20101;-60
2022/11/02 03:02:12;;;;;;;10.40;2.70;;;;;;;11.94;71.87;101375.53;5076951;28;20032;-58
2022/11/02 03:04:38;;;;;;;12.07;2.60;;;;;;;12.09;70.54;101391.75;5082704;28;20036;-58
2022/11/02 03:07:04;;;;;;;14.07;2.78;;;;;;;11.97;71.60;101385.88;5078817;28;20640;-60
2022/11/02 03:09:32;;;;;;;12.10;2.80;;;;;;;11.95;71.21;101382.50;5081978;28;20088;-58
2022/11/02 03:12:25;;;;;;;12.60;2.53;;;;;;;12.06;71.14;101396.56;5075629;28;20042;-58
2022/11/02 03:15:18;;;;;;;10.23;2.63;;;;;;;11.94;71.39;101394.13;5085623;28;20161;-58
2022/11/02 03:18:02;;;;;;;;;;;;;;;12.25;70.02;101395.50;5079393;28;20169;-60
2022/11/02 03:20:56;;;;;;;14.88;2.55;;;;;;;12.08;70.16;101394.56;5086520;28;20428;-58
2022/11/02 03:23:25;;;;;;;13.25;2.97;;;;;;;12.00;70.60;101391.84;5082102;28;20441;-60
2022/11/02 03:26:13;;;;;;;14.77;2.40;;;;;;;11.98;70.74;101405.28;5087473;28;20032;-59
2022/11/02 03:29:07;;;;;;;12.65;2.80;;;;;;;12.07;70.51;101406.19;5077140;28;20024;-57
2022/11/02 03:31:41;;;;;;;12.73;2.65;;;;;;;12.03;70.26;101397.69;5086491;28;20507;-60
2022/11/02 03:34:21;;;;;;;14.10;3.05;;;;;;;12.10;70.13;101419.19;5086111;28;20101;-57
2022/11/02 03:36:55;;;;;;;13.05;2.90;;;;;;;12.10;69.76;101419.19;5080033;28;20031;-58
2022/11/02 03:39:31;;;;;;;17.42;3.42;;;;;;;12.00;70.85;101407.78;5083348;28;20044;-58
2022/11/02 03:42:01;;;;;;;15.88;2.80;;;;;;;12.04;70.32;101411.84;5079275;28;20139;-59
2022/11/02 03:44:29;;;;;;;13.15;2.85;;;;;;;11.95;70.34;101417.06;5081932;28;20043;-57
2022/11/02 03:46:58;;;;;;;14.20;2.95;;;;;;;11.92;70.82;101419.19;5085398;28;20059;-57
2022/11/02 03:49:27;;;;;;;10.75;2.70;;;;;;;11.90;70.34;101429.97;5083391;28;20061;-59
2022/11/02 03:51:55;;;;;;;17.30;3.20;;;;;;;11.94;70.64;101428.69;5085649;28;20024;-58
2022/11/02 03:54:36;;;;;;;17.30;2.90;;;;;;;11.96;71.17;101433.84;5080441;28;20048;-60
2022/11/02 03:57:06;;;;;;;18.70;3.35;;;;;;;11.98;70.71;101430.06;5081546;28;20039;-59
2022/11/02 03:59:31;;;;;;;12.90;2.80;;;;;;;11.89;70.91;101438.13;5085199;28;20032;-58
2022/11/02 04:01:58;;;;;;;16.08;3.22;;;;;;;12.06;70.16;101439.09;5082319;28;20043;-58
2022/11/02 04:04:23;;;;;;;14.60;3.03;;;;;;;11.94;71.26;101447.28;5083011;28;20064;-59
2022/11/02 04:06:49;;;;;;;11.25;2.70;;;;;;;11.89;71.74;101446.91;5084795;28;20063;-58
2022/11/02 04:09:14;;;;;;;13.90;2.75;;;;;;;11.92;71.42;101449.28;5080800;28;20032;-59
2022/11/02 04:14:39;;;;;;;15.13;3.25;;;;;;;11.85;72.31;101437.63;5081660;28;20101;-60
2022/11/02 04:19:54;;;;;;;13.48;3.05;;;;;;;11.70;72.71;101456.75;5081162;28;20043;-59
2022/11/02 04:25:20;;;;;;;17.45;3.33;;;;;;;11.76;72.64;101475.72;5083914;28;20088;-58
2022/11/02 04:27:50;;;;;;;12.98;2.90;;;;;;;11.91;72.05;101483.97;5084276;28;20461;-58
2022/11/02 04:30:21;;;;;;;21.58;3.42;;;;;;;11.69;72.93;101476.34;5085740;28;20046;-58
2022/11/02 04:35:34;;;;;;;19.75;3.13;;;;;;;11.71;72.22;101495.59;5082752;28;20039;-58
2022/11/02 04:40:44;;;;;;;18.60;3.17;;;;;;;11.73;72.49;101503.44;5081787;28;20097;-58
2022/11/02 04:43:10;;;;;;;19.73;3.35;;;;;;;11.71;72.86;101506.22;5084792;28;20445;-57
2022/11/02 04:45:36;;;;;;;18.70;3.08;;;;;;;11.75;72.15;101505.94;5082380;28;20035;-57
2022/11/02 04:48:04;;;;;;;15.52;3.30;;;;;;;11.69;72.49;101529.47;5075186;28;20028;-58
2022/11/02 04:50:29;;;;;;;15.13;2.90;;;;;;;11.76;72.45;101516.44;5084221;28;20032;-59
2022/11/02 04:52:56;;;;;;;17.95;3.70;;;;;;;11.68;72.42;101527.81;5085370;28;20705;-58
2022/11/02 04:55:22;;;;;;;16.02;3.33;;;;;;;11.75;71.97;101529.84;5084073;28;20483;-59
2022/11/02 04:57:47;;;;;;;20.92;3.47;;;;;;;11.71;72.28;101534.66;5081137;28;20028;-59
2022/11/02 05:00:13;;;;;;;14.02;2.70;;;;;;;11.69;72.43;101537.44;5083310;28;20043;-57
2022/11/02 05:02:39;;;;;;;13.88;3.08;;;;;;;11.66;73.23;101535.09;5078745;28;20038;-58
2022/11/02 05:05:05;;;;;;;17.27;3.03;;;;;;;11.77;72.22;101538.50;5080077;28;20036;-60
2022/11/02 05:07:30;;;;;;;16.90;2.80;;;;;;;11.67;72.83;101546.56;5079023;28;20051;-58
2022/11/02 05:09:56;;;;;;;15.35;3.03;;;;;;;11.71;72.39;101548.75;5084752;28;20124;-58
2022/11/02 05:12:21;;;;;;;11.75;2.67;;;;;;;11.75;72.21;101553.78;5084075;28;20518;-60
2022/11/02 05:14:46;;;;;;;15.98;2.90;;;;;;;11.73;72.48;101561.06;5079668;28;20027;-59
2022/11/02 05:17:12;;;;;;;16.60;3.22;;;;;;;11.67;72.46;101557.19;5083871;28;20146;-58
2022/11/02 05:19:37;;;;;;;17.02;3.35;;;;;;;11.74;72.06;101574.19;5083232;28;20040;-57
2022/11/02 05:22:02;;;;;;;15.88;3.08;;;;;;;11.62;72.44;101570.91;5076313;28;20388;-57
2022/11/02 05:24:28;;;;;;;16.33;3.30;;;;;;;11.64;73.19;101574.25;5078508;28;20043;-57
2022/11/02 05:26:53;;;;;;;14.88;3.22;;;;;;;11.65;72.00;101565.28;5078884;28;20494;-58
2022/11/02 05:29:18;;;;;;;13.82;2.70;;;;;;;11.62;72.18;101589.53;5080518;28;20031;-57
2022/11/02 05:31:44;;;;;;;12.68;2.75;;;;;;;11.63;72.10;101591.19;5084310;28;20046;-57
2022/11/02 05:34:09;;;;;;;16.85;3.03;;;;;;;11.51;72.70;101581.75;5081425;28;20066;-59
2022/11/02 05:36:34;;;;;;;10.38;3.15;;;;;;;11.57;71.96;101599.75;5082451;28;20052;-58
2022/11/02 05:38:59;;;;;;;16.00;3.10;;;;;;;11.57;72.34;101605.06;5082570;28;20040;-59
2022/11/02 05:41:25;;;;;;;14.63;3.10;;;;;;;11.57;72.17;101607.72;5079436;28;20036;-59
2022/11/02 05:43:50;;;;;;;14.95;2.97;;;;;;;11.45;72.68;101612.38;5079279;28;20428;-58
2022/11/02 05:46:15;;;;;;;11.82;2.97;;;;;;;11.56;72.25;101614.03;5076241;28;20081;-57
2022/11/02 05:48:41;;;;;;;15.70;2.75;;;;;;;11.46;72.39;101607.91;5083305;28;20036;-58
2022/11/02 05:51:08;;;;;;;10.98;2.80;;;;;;;11.35;72.92;101622.25;5078204;28;20035;-58
2022/11/02 05:53:37;;;;;;;14.23;2.92;;;;;;;11.32;72.91;101628.69;5081134;28;20118;-59
2022/11/02 05:56:07;;;;;;;11.70;2.45;;;;;;;11.34;72.56;101626.69;5083355;28;20039;-58
2022/11/02 05:58:32;;;;;;;13.00;2.95;;;;;;;11.23;73.78;101624.25;5081185;28;20129;-60
2022/11/02 06:01:02;;;;;;;18.38;3.30;;;;;;;11.22;73.52;101633.19;5070498;28;20047;-57
2022/11/02 06:03:29;;;;;;;15.85;2.90;;;;;;;11.20;74.01;101627.19;5081296;28;20118;-59
2022/11/02 06:05:58;;;;;;;11.85;2.70;;;;;;;11.23;73.70;101640.16;5083468;28;20048;-59
2022/11/02 06:08:23;;;;;;;14.05;2.60;;;;;;;11.12;73.88;101639.38;5080505;28;20028;-57
2022/11/02 06:10:49;;;;;;;14.40;3.35;;;;;;;11.13;74.18;101654.34;5073765;28;20032;-58
2022/11/02 06:13:14;;;;;;;16.73;3.05;;;;;;;11.06;73.98;101663.00;5083025;28;20062;-60
2022/11/02 06:15:40;;;;;;;17.00;2.80;;;;;;;11.06;74.81;101655.06;5081152;28;20063;-60
2022/11/02 06:18:06;;;;;;;14.48;3.38;;;;;;;11.04;74.24;101663.16;5083422;28;20035;-59
2022/11/02 06:20:32;;;;;;;13.55;2.83;;;;;;;11.02;74.72;101671.25;5082802;28;20030;-58
2022/11/02 06:22:57;;;;;;;14.05;3.03;;;;;;;10.97;74.57;101668.22;5082695;28;20024;-60
2022/11/02 06:25:23;;;;;;;15.93;2.97;;;;;;;10.99;74.73;101682.16;5079923;28;20172;-59
2022/11/02 06:27:55;;;;;;;14.60;2.60;;;;;;;10.93;74.83;101687.19;5076139;28;20073;-57
2022/11/02 06:30:22;;;;;;;10.82;2.65;;;;;;;10.86;75.78;101687.78;5081817;28;20166;-60
2022/11/02 06:32:49;;;;;;;13.55;3.10;;;;;;;10.89;75.18;101691.94;5073503;28;20062;-57
2022/11/02 06:35:16;;;;;;;13.40;2.70;;;;;;;10.83;75.53;101696.03;5078188;28;20032;-58
2022/11/02 06:37:42;;;;;;;17.05;2.92;;;;;;;10.78;75.99;101695.59;5076294;28;20040;-58
2022/11/02 06:40:08;;;;;;;14.85;3.00;;;;;;;10.74;76.39;101704.81;5076068;28;20089;-58
2022/11/02 06:42:33;;;;;;;12.45;2.80;;;;;;;10.76;76.18;101710.84;5076949;28;20519;-59
2022/11/02 06:45:01;;;;;;;13.55;2.80;;;;;;;10.76;76.19;101724.09;5078914;28;20047;-58
2022/11/02 06:47:34;;;;;;;14.50;3.17;;;;;;;10.81;75.66;101732.47;5080628;28;20061;-58
2022/11/02 06:50:00;;;;;;;16.58;2.90;;;;;;;10.69;76.52;101736.25;5082522;28;20032;-58
2022/11/02 06:52:26;;;;;;;14.13;3.00;;;;;;;10.68;76.05;101753.13;5081919;28;20035;-58
2022/11/02 06:54:52;;;;;;;15.52;3.05;;;;;;;10.69;76.12;101752.16;5077421;28;20043;-58
2022/11/02 06:57:18;;;;;;;12.25;2.90;;;;;;;10.67;76.25;101767.38;5081151;28;20430;-58
2022/11/02 06:59:43;;;;;;;14.30;3.00;;;;;;;10.72;75.51;101762.50;5080249;28;20028;-59
2022/11/02 07:02:08;;;;;;;13.80;2.70;;;;;;;10.63;76.48;101772.97;5077166;28;20050;-57
2022/11/02 07:04:33;;;;;;;14.15;2.85;;;;;;;10.62;76.13;101776.59;5078138;28;21099;-58
2022/11/02 07:06:59;;;;;;;14.73;2.83;;;;;;;10.70;75.36;101785.69;5080795;28;20035;-60
2022/11/02 07:09:24;;;;;;;14.52;2.67;;;;;;;10.70;75.74;101785.69;5078040;28;20032;-58
2022/11/02 07:11:49;;;;;;;13.07;2.88;;;;;;;10.65;76.74;101793.22;5081411;28;20043;-61
2022/11/02 07:14:14;;;;;;;13.60;2.70;;;;;;;10.63;76.06;101798.66;5079199;28;20051;-60
2022/11/02 07:16:40;;;;;;;12.63;2.70;;;;;;;10.67;75.98;101804.53;5078969;28;20040;-58
2022/11/02 07:19:05;;;;;;;19.48;3.42;;;;;;;10.67;76.22;101815.97;5081745;28;20071;-59
2022/11/02 07:21:31;;;;;;;17.42;2.70;;;;;;;10.65;76.98;101822.41;5076643;28;20581;-61
2022/11/02 07:23:56;;;;;;;12.85;2.42;;;;;;;10.67;76.56;101825.75;5071614;28;21276;-57
2022/11/02 07:26:21;;;;;;;12.95;2.95;;;;;;;10.70;76.43;101828.13;5075855;28;20502;-60
2022/11/02 07:28:47;;;;;;;13.40;2.83;;;;;;;10.79;76.22;101829.94;5073633;28;20069;-58
2022/11/02 07:31:12;;;;;;;12.95;2.72;;;;;;;10.72;76.46;101834.13;5075845;28;20101;-58
2022/11/02 07:33:37;;;;;;;15.70;2.80;;;;;;;10.72;76.70;101839.44;5075391;28;20051;-60
2022/11/02 07:36:04;;;;;;;11.88;2.50;;;;;;;10.80;76.60;101844.88;5074079;28;20032;-58
2022/11/02 07:38:29;;;;;;;19.98;3.00;;;;;;;10.71;76.58;101832.47;5075235;28;20055;-59
2022/11/02 07:40:55;;;;;;;16.20;3.13;;;;;;;10.74;76.39;101848.94;5072045;28;20107;-60
2022/11/02 07:43:20;;;;;;;14.52;2.78;;;;;;;10.74;76.52;101848.94;5070879;28;20110;-58
2022/11/02 07:45:45;;;;;;;16.20;3.17;;;;;;;10.77;76.91;101855.78;5076358;28;20032;-58
2022/11/02 07:48:10;;;;;;;13.02;3.03;;;;;;;10.83;76.58;101863.19;5072133;28;20461;-60
2022/11/02 07:50:36;;;;;;;14.65;3.10;;;;;;;10.82;76.77;101863.31;5073522;28;20696;-59
2022/11/02 07:53:01;;;;;;;13.07;2.80;;;;;;;10.88;76.96;101860.97;5073444;28;20028;-60
2022/11/02 07:55:28;;;;;;;15.65;3.22;;;;;;;10.79;77.35;101867.09;5076094;28;20028;-59
2022/11/02 07:58:06;;;;;;;16.38;2.55;;;;;;;10.87;76.85;101861.91;5071492;28;20102;-60
2022/11/02 08:00:36;;;;;;;18.38;3.45;;;;;;;10.89;76.88;101867.09;5072271;28;20035;-60
2022/11/02 08:03:03;;;;;;;11.48;2.67;;;;;;;10.89;76.94;101862.63;5073298;28;20088;-58
2022/11/02 08:05:30;;;;;;;14.68;2.97;;;;;;;10.93;76.87;101867.66;5072750;28;20084;-59
2022/11/02 08:08:00;;;;;;;17.85;3.10;;;;;;;11.01;76.43;101865.16;5073963;28;20116;-58
2022/11/02 08:10:27;;;;;;;13.65;2.70;;;;;;;10.95;77.29;101865.72;5071671;28;20070;-59
2022/11/02 08:12:53;;;;;;;13.57;2.90;;;;;;;11.02;76.92;101861.53;5074592;28;20043;-59
2022/11/02 08:15:19;;;;;;;15.82;2.90;;;;;;;11.01;76.85;101875.78;5072851;28;20036;-57
2022/11/02 08:17:44;;;;;;;16.23;3.28;;;;;;;11.02;76.89;101866.84;5070613;28;20036;-58
2022/11/02 08:20:09;;;;;;;11.93;2.53;;;;;;;11.11;76.38;101881.91;5074738;28;20513;-57
2022/11/02 08:22:39;;;;;;;16.88;3.33;;;;;;;11.21;76.54;101883.75;5071616;28;20638;-58
2022/11/02 08:25:06;;;;;;;18.42;3.22;;;;;;;11.16;76.46;101885.00;5079137;28;20043;-58
2022/11/02 08:27:31;;;;;;;16.40;2.80;;;;;;;11.20;76.22;101892.69;5072357;28;20036;-61
2022/11/02 08:29:56;;;;;;;13.07;2.85;;;;;;;11.21;76.52;101891.69;5079318;28;20036;-58
2022/11/02 08:32:22;;;;;;;17.15;3.30;;;;;;;11.20;76.38;101896.16;5079284;28;20351;-58
2022/11/02 08:34:47;;;;;;;17.40;3.20;;;;;;;11.24;76.01;101886.09;5080014;28;20066;-58
2022/11/02 08:37:12;;;;;;;21.02;2.92;;;;;;;11.27;76.30;101885.84;5080041;28;20040;-58
2022/11/02 08:39:37;;;;;;;11.40;2.70;;;;;;;11.35;75.83;101888.59;5079634;28;20043;-59
2022/11/02 08:42:03;;;;;;;16.02;3.13;;;;;;;11.39;75.60;101903.28;5079810;28;20052;-60
2022/11/02 08:44:28;;;;;;;15.55;2.67;;;;;;;11.40;75.75;101906.81;5073239;28;20380;-60
2022/11/02 08:46:54;;;;;;;13.25;2.83;;;;;;;11.46;75.00;101910.69;5076256;28;20251;-59
2022/11/02 08:49:20;;;;;;;14.20;2.90;;;;;;;11.55;74.94;101909.88;5072605;28;20036;-59
2022/11/02 08:51:45;;;;;;;15.32;2.97;;;;;;;11.54;74.71;101903.69;5075875;28;20026;-57
2022/11/02 08:54:11;;;;;;;14.07;2.90;;;;;;;11.54;75.11;101913.47;5080738;28;20407;-58
2022/11/02 08:56:37;;;;;;;15.45;2.80;;;;;;;11.57;74.34;101915.88;5080864;28;20498;-58
2022/11/02 08:59:02;;;;;;;12.75;2.83;;;;;;;11.61;73.64;101919.94;5077098;28;20035;-60
2022/11/02 09:01:27;;;;;;;12.35;2.80;;;;;;;11.75;71.41;101915.16;5075935;28;20032;-58
2022/11/02 09:03:52;;;;;;;13.52;2.88;;;;;;;11.76;71.66;101924.78;5075052;28;20020;-60
2022/11/02 09:06:18;;;;;;;13.98;2.80;;;;;;;11.71;72.47;101926.03;5080574;28;20043;-57
2022/11/02 09:08:43;;;;;;;16.00;3.35;;;;;;;11.70;73.52;101923.56;5081155;28;20028;-64
2022/11/02 09:11:08;;;;;;;14.82;2.85;;;;;;;11.81;72.55;101930.53;5079004;28;20139;-61
2022/11/02 09:13:34;;;;;;;17.13;2.78;;;;;;;11.80;72.95;101915.56;5076879;28;20046;-61
2022/11/02 09:15:59;;;;;;;16.58;2.90;;;;;;;11.82;72.86;101919.75;5079286;28;20525;-61
2022/11/02 09:18:25;;;;;;;17.88;3.05;;;;;;;11.86;72.87;101925.63;5075966;28;20032;-59
2022/11/02 09:20:50;;;;;;;15.45;3.25;;;;;;;11.94;73.14;101930.22;5076045;28;20096;-58
2022/11/02 09:23:16;;;;;;;18.52;2.90;;;;;;;11.92;73.01;101938.34;5078398;28;20038;-59
2022/11/02 09:25:42;;;;;;;16.98;3.20;;;;;;;12.02;72.44;101934.78;5070312;28;20425;-59
2022/11/02 09:28:08;;;;;;;14.98;2.90;;;;;;;12.04;71.76;101933.69;5073279;28;20036;-59
2022/11/02 09:30:33;;;;;;;17.20;3.03;;;;;;;12.02;72.57;101937.44;5079190;28;20099;-59
2022/11/02 09:33:01;;;;;;;17.30;3.25;;;;;;;12.10;72.20;101937.63;5074747;28;20050;-61
2022/11/02 09:35:34;;;;;;;15.85;3.45;;;;;;;12.15;72.75;101950.47;5076691;28;20024;-62
2022/11/02 09:38:00;;;;;;;19.17;3.55;;;;;;;12.22;72.74;101949.75;5069129;28;20487;-59
2022/11/02 09:40:42;;;;;;;16.50;3.40;;;;;;;12.31;71.43;101947.19;5077831;28;20043;-61
2022/11/02 09:43:07;;;;;;;15.40;3.05;;;;;;;12.24;72.76;101942.47;5079262;28;20417;-60
2022/11/02 09:45:38;;;;;;;17.17;3.30;;;;;;;12.19;72.88;101942.06;5077771;28;20036;-59
2022/11/02 09:48:26;;;;;;;15.13;2.95;;;;;;;12.28;72.21;101942.19;5078462;28;20070;-59
2022/11/02 09:50:58;;;;;;;12.98;3.05;;;;;;;12.34;70.49;101945.06;5070909;28;20150;-59
2022/11/02 09:53:40;;;;;;;18.30;3.67;;;;;;;12.30;71.42;101953.50;5071837;28;20081;-60
2022/11/02 09:56:07;;;;;;;18.02;3.50;;;;;;;12.32;71.13;101962.16;5068030;28;20027;-60
2022/11/02 09:58:37;;;;;;;18.83;2.97;;;;;;;12.37;69.88;101952.78;5070008;28;20024;-61
2022/11/02 10:01:18;;;;;;;17.52;2.92;;;;;;;12.41;69.44;101948.00;5067283;28;20405;-62
2022/11/02 10:04:18;;;;;;;17.55;3.20;;;;;;;12.53;69.50;101961.13;5073155;28;20063;-58
2022/11/02 10:06:54;;;;;;;13.52;2.92;;;;;;;12.40;69.32;101967.63;5044972;28;20048;-64
2022/11/02 10:09:32;;;;;;;16.25;3.08;;;;;;;12.47;69.17;101967.84;5074147;28;20047;-60
2022/11/02 10:12:13;;;;;;;18.35;3.10;;;;;;;12.49;68.95;101972.03;5075400;28;20035;-60
2022/11/02 10:14:46;;;;;;;14.50;2.80;;;;;;;12.55;69.80;101980.44;5074689;28;20031;-61
2022/11/02 10:17:24;;;;;;;20.40;3.03;;;;;;;12.56;69.41;101976.78;5068308;28;20040;-61
2022/11/02 10:20:01;;;;;;;12.73;2.67;;;;;;;12.59;67.81;101981.81;5071468;28;20035;-62
2022/11/02 10:22:32;;;;;;;16.17;3.03;;;;;;;12.64;67.81;101984.88;5080172;28;20032;-58
2022/11/02 10:25:03;;;;;;;16.70;3.00;;;;;;;12.64;67.51;101992.88;5080780;28;20086;-60
2022/11/02 10:27:33;;;;;;;17.08;3.20;;;;;;;12.66;68.16;101990.88;5080010;28;20036;-60
2022/11/02 10:30:04;;;;;;;15.38;3.05;;;;;;;12.74;66.25;101990.16;5073896;28;20079;-59
2022/11/02 10:32:31;;;;;;;15.98;2.92;;;;;;;12.78;66.11;101978.22;5080109;28;20040;-58
2022/11/02 10:34:57;;;;;;;18.77;3.30;;;;;;;12.78;66.52;101992.38;5080898;28;20039;-59
2022/11/02 10:37:41;;;;;;;17.45;3.83;;;;;;;12.76;66.18;101978.38;5082158;28;20103;-58
2022/11/02 10:40:12;;;;;;;15.82;3.20;;;;;;;12.78;66.92;101981.72;5080035;28;20093;-58
2022/11/02 10:42:57;;;;;;;16.35;3.05;;;;;;;12.86;66.55;101988.13;5083121;28;20497;-58
2022/11/02 10:45:44;;;;;;;16.90;2.72;;;;;;;13.02;65.10;101993.66;5083749;28;20390;-59
2022/11/02 10:48:28;;;;;;;16.98;2.97;;;;;;;12.95;65.71;101995.22;5081943;28;20032;-61
2022/11/02 10:51:08;;;;;;;17.52;2.90;;;;;;;12.89;65.03;101995.81;5079322;28;20375;-58
2022/11/02 10:53:50;;;;;;;17.75;2.95;;;;;;;12.95;63.66;101997.88;5082447;28;20518;-58
2022/11/02 10:56:17;;;;;;;13.00;2.83;;;;;;;13.03;64.06;102000.63;5082463;28;20046;-58
2022/11/02 10:58:49;;;;;;;15.82;2.83;;;;;;;13.04;65.13;101989.00;5079906;28;20497;-59
2022/11/02 11:01:15;;;;;;;15.63;3.10;;;;;;;13.09;64.21;102001.03;5080401;28;20474;-58
2022/11/02 11:03:59;;;;;;;12.25;2.83;;;;;;;13.13;64.00;102010.41;5082187;28;20032;-58
2022/11/02 11:06:39;;;;;;;16.98;3.08;;;;;;;13.05;63.37;102004.00;5077648;28;20122;-61
2022/11/02 11:09:24;;;;;;;12.13;2.70;;;;;;;13.11;63.67;102007.03;5074798;28;20047;-59
2022/11/02 11:12:01;;;;;;;11.65;2.65;;;;;;;13.05;61.52;102008.47;5076835;28;20111;-59
2022/11/02 11:14:29;;;;;;;15.23;2.58;;;;;;;13.03;61.74;102000.63;5077740;28;20032;-59
2022/11/02 11:16:56;;;;;;;10.50;2.60;;;;;;;13.11;61.55;102009.69;5070934;28;20036;-61
2022/11/02 11:19:34;;;;;;;16.42;2.90;;;;;;;13.19;62.01;102012.47;5078267;28;20403;-62
2022/11/02 11:22:01;;;;;;;11.95;2.47;;;;;;;13.23;61.77;102013.00;5080596;28;20035;-58
2022/11/02 11:24:33;;;;;;;19.20;3.00;;;;;;;13.27;61.36;102012.53;5081173;28;20359;-61
2022/11/02 11:27:01;;;;;;;;;;;;;;;13.33;62.85;102005.78;5081994;28;20109;-58
2022/11/02 11:29:32;;;;;;;13.40;2.60;;;;;;;13.40;61.55;101992.69;5081394;28;19985;-59
2022/11/02 11:31:59;;;;;;;13.27;2.75;;;;;;;13.42;60.69;102004.03;5082528;28;20032;-59
2022/11/02 11:34:28;;;;;;;20.65;2.70;;;;;;;13.46;61.62;101994.78;5079343;28;20059;-59
2022/11/02 11:37:04;;;;;;;18.35;2.95;;;;;;;13.47;60.83;101993.78;5078143;28;20128;-58
2022/11/02 11:39:32;;;;;;;14.88;2.90;;;;;;;13.48;60.39;101990.16;5076918;28;20128;-60
2022/11/02 11:41:58;;;;;;;14.15;2.78;;;;;;;13.49;60.29;101989.16;5080236;28;20040;-62